Time;durP1;ratioP1;P1;durP2;ratioP2;P2;SDS_P1;SDS_P2;PMS_P1;PMS_P2;Temp;Humidity;BMP_temperature;BMP_pressure;BME280_temperature;BME280_humidity;BME280_pressure;Samples;Min_cycle;Max_cycle;Signal;HPM_P1;HPM_P2
2021/11/12 00:12:04;;;;;;;12.77;9.32;;;23.40;38.70;;;;;;5047453;28;20524;-61
2021/11/12 00:14:25;;;;;;;11.50;8.98;;;23.40;38.70;;;;;;5047504;28;20048;-61
2021/11/12 00:16:54;;;;;;;11.52;9.48;;;23.40;38.70;;;;;;5038800;28;20083;-61
2021/11/12 00:19:22;;;;;;;12.30;9.13;;;23.40;38.70;;;;;;5021338;28;20115;-61
2021/11/12 00:21:49;;;;;;;11.25;8.98;;;23.40;38.70;;;;;;5046628;28;20321;-61
2021/11/12 00:24:16;;;;;;;11.90;9.35;;;23.40;38.70;;;;;;5048023;28;20053;-62
2021/11/12 00:26:43;;;;;;;12.20;9.25;;;23.40;38.70;;;;;;5046986;28;20052;-61
2021/11/12 00:29:12;;;;;;;14.98;8.95;;;23.40;38.70;;;;;;5025337;28;20459;-62
2021/11/12 00:31:51;;;;;;;11.23;8.63;;;23.40;38.70;;;;;;5029176;28;20128;-61
2021/11/12 00:37:12;;;;;;;10.23;8.70;;;23.40;38.60;;;;;;5026893;28;20080;-60
2021/11/12 00:39:47;;;;;;;13.38;9.70;;;23.40;38.60;;;;;;5026174;28;20061;-61
2021/11/12 00:42:23;;;;;;;12.82;9.52;;;23.40;38.60;;;;;;5047744;28;20078;-61
2021/11/12 00:45:03;;;;;;;11.23;8.68;;;23.40;38.60;;;;;;5045802;28;20531;-61
2021/11/12 00:47:53;;;;;;;12.13;9.35;;;23.40;38.60;;;;;;5047679;28;20052;-61
2021/11/12 00:50:40;;;;;;;13.90;8.40;;;23.40;38.60;;;;;;5030824;28;20110;-61
2021/11/12 00:55:56;;;;;;;10.82;8.63;;;23.30;38.60;;;;;;5046630;28;20048;-61
2021/11/12 00:58:24;;;;;;;11.32;8.82;;;23.30;38.70;;;;;;5038458;28;20085;-61
2021/11/12 01:00:51;;;;;;;10.20;8.23;;;23.30;38.70;;;;;;5025420;28;20139;-61
2021/11/12 01:03:19;;;;;;;11.73;8.68;;;23.30;38.70;;;;;;5028759;28;20056;-61
2021/11/12 01:05:46;;;;;;;10.07;8.05;;;23.30;38.70;;;;;;5030824;28;20049;-61
2021/11/12 01:08:13;;;;;;;10.52;8.68;;;23.30;38.70;;;;;;5031075;28;20484;-61
2021/11/12 01:10:40;;;;;;;10.45;8.43;;;23.30;38.70;;;;;;5038391;28;20135;-61
2021/11/12 01:13:07;;;;;;;10.38;8.13;;;23.30;39.20;;;;;;5051441;28;20078;-61
2021/11/12 01:15:35;;;;;;;11.57;9.18;;;23.30;38.70;;;;;;5050700;28;20572;-61
2021/11/12 01:18:03;;;;;;;11.70;8.98;;;23.30;38.70;;;;;;5028653;28;20094;-61
2021/11/12 01:20:30;;;;;;;10.70;8.48;;;23.30;38.60;;;;;;5032232;28;20053;-61
2021/11/12 01:22:57;;;;;;;9.85;8.35;;;23.30;38.60;;;;;;5032383;28;20067;-61
2021/11/12 01:25:24;;;;;;;10.05;8.70;;;23.30;38.60;;;;;;5029539;28;20048;-61
2021/11/12 01:27:52;;;;;;;9.80;8.23;;;23.30;38.60;;;;;;5030372;28;20150;-61
2021/11/12 01:30:19;;;;;;;10.27;8.13;;;23.30;38.60;;;;;;5022049;28;20052;-61
2021/11/12 01:32:48;;;;;;;12.45;8.63;;;23.30;38.60;;;;;;5031010;28;20048;-61
2021/11/12 01:35:18;;;;;;;11.80;8.90;;;23.30;38.60;;;;;;5029453;28;20163;-61
2021/11/12 01:37:46;;;;;;;11.35;8.75;;;23.30;38.60;;;;;;5030662;28;20085;-62
2021/11/12 01:40:24;;;;;;;9.80;7.82;;;23.30;38.60;;;;;;5021663;28;20053;-62
2021/11/12 01:43:04;;;;;;;11.27;8.05;;;23.30;38.60;;;;;;5030987;28;20065;-62
2021/11/12 01:45:46;;;;;;;11.43;8.23;;;23.30;38.60;;;;;;5030308;28;20057;-62
2021/11/12 01:48:36;;;;;;;10.20;8.80;;;23.30;38.60;;;;;;5028534;28;20144;-62
2021/11/12 01:51:10;;;;;;;11.38;8.82;;;23.30;38.60;;;;;;5028222;28;20473;-62
2021/11/12 01:53:41;;;;;;;10.07;8.60;;;23.30;38.60;;;;;;5029342;28;20923;-62
2021/11/12 01:56:27;;;;;;;11.23;8.18;;;23.30;38.60;;;;;;5030044;28;20052;-62
2021/11/12 01:59:11;;;;;;;10.88;8.45;;;23.30;38.60;;;;;;5028648;28;20088;-62
2021/11/12 02:01:47;;;;;;;9.40;7.95;;;23.30;38.60;;;;;;5026768;28;20497;-62
2021/11/12 02:04:16;;;;;;;10.50;8.48;;;23.30;38.60;;;;;;5030372;28;20111;-62
2021/11/12 02:06:45;;;;;;;9.48;7.90;;;23.30;38.60;;;;;;5030349;28;20089;-62
2021/11/12 02:09:19;;;;;;;10.10;8.07;;;23.30;38.60;;;;;;5024566;28;20092;-62
2021/11/12 02:11:50;;;;;;;9.60;7.53;;;23.30;38.50;;;;;;5030457;28;20053;-62
2021/11/12 02:14:19;;;;;;;10.15;8.43;;;23.30;38.40;;;;;;5030443;28;20048;-62
2021/11/12 02:17:06;;;;;;;9.73;8.25;;;23.30;38.40;;;;;;5028888;28;20132;-62
2021/11/12 02:19:35;;;;;;;9.90;8.52;;;23.40;38.40;;;;;;5017536;28;20282;-62
2021/11/12 02:22:08;;;;;;;11.23;7.25;;;23.40;38.30;;;;;;5030135;28;20055;-62
2021/11/12 02:24:40;;;;;;;10.25;7.75;;;23.40;38.20;;;;;;5029792;28;20528;-64
2021/11/12 02:27:11;;;;;;;9.75;7.82;;;23.40;38.10;;;;;;5029062;28;20049;-62
2021/11/12 02:29:44;;;;;;;9.40;7.90;;;23.40;38.10;;;;;;5030049;28;20506;-62
2021/11/12 02:32:27;;;;;;;10.40;7.40;;;23.40;38.00;;;;;;5011124;28;20167;-62
2021/11/12 02:34:58;;;;;;;9.13;7.55;;;23.50;38.10;;;;;;5030299;28;20501;-62
2021/11/12 02:37:28;;;;;;;9.70;8.07;;;23.50;38.00;;;;;;5029775;28;20049;-61
2021/11/12 02:39:55;;;;;;;;;;;23.50;38.00;;;;;;5029846;28;20110;-62
2021/11/12 02:42:23;;;;;;;8.35;6.93;;;23.50;38.00;;;;;;5018609;28;19925;-62
2021/11/12 02:44:51;;;;;;;8.90;7.60;;;23.50;38.10;;;;;;5029603;28;20132;-62
2021/11/12 02:47:20;;;;;;;10.05;7.88;;;23.50;38.00;;;;;;5029338;28;20048;-62
2021/11/12 02:49:48;;;;;;;8.70;7.05;;;23.50;38.10;;;;;;5029893;28;20049;-62
2021/11/12 02:52:18;;;;;;;9.05;7.30;;;23.50;38.10;;;;;;5016962;28;20053;-62
2021/11/12 02:54:48;;;;;;;8.43;7.32;;;23.50;38.00;;;;;;5029756;28;20139;-62
2021/11/12 02:57:16;;;;;;;9.27;7.65;;;23.50;38.00;;;;;;5028016;28;20133;-62
2021/11/12 02:59:43;;;;;;;9.30;7.30;;;23.50;38.00;;;;;;5029570;28;20057;-62
2021/11/12 03:02:11;;;;;;;11.23;7.93;;;23.40;38.00;;;;;;5012559;28;20126;-62
2021/11/12 03:04:38;;;;;;;9.60;8.00;;;23.50;38.00;;;;;;5029169;28;20136;-62
2021/11/12 03:07:05;;;;;;;9.02;6.88;;;23.40;38.00;;;;;;5028686;28;20353;-62
2021/11/12 03:09:33;;;;;;;9.38;7.25;;;23.40;38.00;;;;;;5028636;28;20079;-62
2021/11/12 03:12:03;;;;;;;8.93;7.43;;;23.50;38.00;;;;;;5011978;28;20498;-62
2021/11/12 03:14:31;;;;;;;8.38;6.80;;;23.50;38.00;;;;;;5027626;28;20049;-62
2021/11/12 03:16:59;;;;;;;9.40;7.88;;;23.50;38.00;;;;;;5029225;28;20049;-61
2021/11/12 03:19:28;;;;;;;8.45;6.60;;;23.40;38.00;;;;;;5029712;28;20478;-61
2021/11/12 03:22:03;;;;;;;8.82;7.25;;;23.40;38.00;;;;;;5020405;28;20048;-62
2021/11/12 03:24:35;;;;;;;8.48;7.30;;;23.40;38.00;;;;;;5012410;28;20496;-62
2021/11/12 03:27:13;;;;;;;11.00;7.40;;;23.50;38.00;;;;;;5028575;28;20132;-62
2021/11/12 04:00:32;;;;;;;8.90;7.18;;;23.50;37.80;;;;;;5028457;28;20122;-62
2021/11/12 04:03:16;;;;;;;8.25;6.78;;;23.50;37.80;;;;;;5028983;28;20056;-61
2021/11/12 04:06:06;;;;;;;8.32;7.00;;;23.50;37.30;;;;;;5048189;28;20101;-61
2021/11/12 04:30:41;;;;;;;8.70;6.47;;;23.40;37.70;;;;;;5027597;28;20490;-62
2021/11/12 05:09:59;;;;;;;6.53;5.47;;;23.40;37.90;;;;;;5047139;28;20095;-62
2021/11/12 05:34:44;;;;;;;6.20;5.38;;;23.40;37.60;;;;;;5019868;28;20053;-62
2021/11/12 05:45:57;;;;;;;6.82;5.40;;;23.40;37.70;;;;;;5026863;28;20057;-62
2021/11/12 05:51:26;;;;;;;7.00;6.00;;;23.30;37.60;;;;;;5017513;28;20053;-62
2021/11/12 05:56:41;;;;;;;6.85;5.53;;;23.40;37.70;;;;;;5031679;28;20044;-62
2021/11/12 05:59:10;;;;;;;6.03;5.40;;;23.30;37.70;;;;;;5029408;28;20052;-62
2021/11/12 06:01:38;;;;;;;6.45;5.72;;;23.30;37.70;;;;;;5008998;28;20052;-62
2021/11/12 06:04:06;;;;;;;6.35;5.45;;;23.30;37.70;;;;;;5021716;28;21061;-62
2021/11/12 06:06:33;;;;;;;5.85;5.25;;;23.30;37.70;;;;;;5029052;28;20102;-62
2021/11/12 06:09:01;;;;;;;5.90;5.22;;;23.30;37.60;;;;;;5012155;28;20059;-62
2021/11/12 06:11:28;;;;;;;6.05;5.45;;;23.40;37.60;;;;;;5021862;28;20111;-62
2021/11/12 06:13:57;;;;;;;5.70;5.10;;;23.40;37.50;;;;;;5027754;28;20053;-62
2021/11/12 06:16:26;;;;;;;5.60;5.00;;;23.40;37.40;;;;;;5026948;28;20084;-62
2021/11/12 06:18:54;;;;;;;6.50;5.15;;;23.40;37.40;;;;;;5030008;28;20472;-62
2021/11/12 06:21:23;;;;;;;4.90;4.35;;;23.40;37.30;;;;;;5015284;28;20131;-62
2021/11/12 06:23:51;;;;;;;5.38;4.70;;;23.50;37.20;;;;;;5017876;28;20084;-62
2021/11/12 06:26:19;;;;;;;7.45;5.90;;;23.40;37.10;;;;;;5019988;28;20636;-62
2021/11/12 06:28:47;;;;;;;5.07;4.50;;;23.50;37.00;;;;;;5021247;28;20087;-62
2021/11/12 06:31:14;;;;;;;4.68;4.20;;;23.50;36.90;;;;;;5011713;28;20115;-63
2021/11/12 06:33:41;;;;;;;4.70;4.30;;;23.50;36.90;;;;;;5014645;28;20055;-63
2021/11/12 06:36:09;;;;;;;4.55;4.07;;;23.60;36.80;;;;;;5019654;28;20102;-62
2021/11/12 06:38:37;;;;;;;4.53;4.13;;;23.60;36.70;;;;;;5022343;28;20044;-60
2021/11/12 06:41:10;;;;;;;4.88;4.38;;;23.70;36.60;;;;;;5006686;28;20099;-61
2021/11/12 06:43:59;;;;;;;9.55;4.30;;;23.80;36.40;;;;;;5013822;28;20158;-64
2021/11/12 06:49:19;;;;;;;4.57;4.18;;;23.90;36.30;;;;;;5011377;28;20049;-62
2021/11/12 06:51:46;;;;;;;5.18;3.38;;;23.90;36.00;;;;;;5006105;28;20061;-62
2021/11/12 06:54:14;;;;;;;3.55;3.25;;;24.00;35.80;;;;;;5012476;28;21486;-62
2021/11/12 06:56:41;;;;;;;4.47;3.97;;;24.10;35.50;;;;;;5014950;28;20093;-62
2021/11/12 06:59:08;;;;;;;4.35;3.95;;;24.10;35.50;;;;;;5018910;28;20111;-61
2021/11/12 07:01:35;;;;;;;6.00;4.10;;;24.20;35.50;;;;;;5002518;28;20107;-61
2021/11/12 07:04:03;;;;;;;5.63;4.30;;;24.20;35.40;;;;;;5013651;28;20052;-61
2021/11/12 07:06:30;;;;;;;4.35;3.95;;;24.30;35.40;;;;;;5019736;28;20140;-60
2021/11/12 07:08:58;;;;;;;4.35;3.95;;;24.30;35.30;;;;;;5020937;28;20717;-59
2021/11/12 07:11:25;;;;;;;8.85;3.40;;;24.40;35.50;;;;;;5008516;28;20471;-59
2021/11/12 07:13:52;;;;;;;3.78;3.38;;;24.50;35.70;;;;;;5010174;28;20056;-60
2021/11/12 07:16:19;;;;;;;4.20;3.75;;;24.50;35.50;;;;;;5010885;28;20138;-59
2021/11/12 07:18:49;;;;;;;3.63;3.30;;;24.60;35.50;;;;;;5015750;28;20767;-61
2021/11/12 07:21:16;;;;;;;5.10;3.70;;;24.60;35.50;;;;;;5008856;28;20392;-61
2021/11/12 07:24:01;;;;;;;3.90;3.22;;;24.70;35.30;;;;;;5006206;28;20048;-60
2021/11/12 07:26:30;;;;;;;3.40;3.10;;;24.70;35.00;;;;;;5016167;28;20056;-61
2021/11/12 07:28:57;;;;;;;3.00;2.80;;;24.80;34.90;;;;;;5003178;28;20057;-60
2021/11/12 07:31:41;;;;;;;5.18;3.55;;;24.80;34.80;;;;;;5001154;28;20174;-61
2021/11/12 07:34:09;;;;;;;3.50;3.20;;;24.90;34.90;;;;;;5015778;28;20049;-61
2021/11/12 07:36:39;;;;;;;3.90;3.50;;;24.90;35.10;;;;;;5018957;28;20167;-61
2021/11/12 07:39:17;;;;;;;2.95;2.75;;;24.90;35.00;;;;;;5015259;28;20063;-61
2021/11/12 07:42:09;;;;;;;4.25;3.20;;;25.00;34.90;;;;;;5003022;28;20463;-61
2021/11/12 07:44:37;;;;;;;8.27;3.75;;;25.00;34.80;;;;;;5017964;28;20433;-61
2021/11/12 07:47:16;;;;;;;3.10;2.83;;;25.10;34.90;;;;;;5021481;28;20081;-62
2021/11/12 07:49:54;;;;;;;4.40;3.05;;;25.10;34.80;;;;;;5018299;28;20060;-62
2021/11/12 07:52:27;;;;;;;3.35;3.05;;;25.10;34.70;;;;;;5001065;28;20179;-62
2021/11/12 07:54:55;;;;;;;5.05;3.20;;;25.20;35.40;;;;;;5020129;28;20080;-61
2021/11/12 07:57:22;;;;;;;4.00;2.90;;;25.20;35.40;;;;;;5020898;28;20049;-62
2021/11/12 07:59:49;;;;;;;4.13;2.90;;;25.20;34.40;;;;;;5014754;28;20490;-61
2021/11/12 08:02:18;;;;;;;3.25;3.05;;;25.20;34.30;;;;;;5002542;28;20103;-62
2021/11/12 08:04:50;;;;;;;3.25;2.95;;;25.20;34.30;;;;;;5010966;28;20049;-63
2021/11/12 08:07:17;;;;;;;3.05;2.85;;;25.20;34.90;;;;;;5017477;28;20052;-65
2021/11/12 08:09:53;;;;;;;3.10;2.90;;;25.20;34.50;;;;;;5018581;28;20103;-63
2021/11/12 08:12:33;;;;;;;3.45;3.20;;;25.10;34.50;;;;;;5003797;28;20068;-63
2021/11/12 08:15:17;;;;;;;3.60;2.67;;;25.10;34.70;;;;;;5004822;28;20056;-64
2021/11/12 08:18:07;;;;;;;5.90;3.13;;;25.10;34.70;;;;;;5011376;28;20103;-64
2021/11/12 08:23:52;;;;;;;3.85;2.88;;;25.10;34.60;;;;;;5005026;28;22258;-62
2021/11/12 08:26:31;;;;;;;5.65;2.88;;;25.00;34.60;;;;;;5016359;28;20426;-62
2021/11/12 08:35:01;;;;;;;3.40;3.10;;;25.00;34.90;;;;;;5010351;28;20753;-62
2021/11/12 08:40:19;;;;;;;3.10;2.90;;;25.00;35.00;;;;;;5015814;28;20056;-62
2021/11/12 08:42:54;;;;;;;3.03;2.83;;;25.00;35.10;;;;;;4997403;28;20642;-62
2021/11/12 08:45:26;;;;;;;3.03;2.80;;;25.00;35.00;;;;;;5016038;28;20494;-62
2021/11/12 08:47:58;;;;;;;3.50;3.20;;;25.00;35.00;;;;;;5018175;28;20359;-63
2021/11/12 08:50:26;;;;;;;3.45;3.15;;;25.00;34.90;;;;;;5010795;28;20111;-65
2021/11/12 08:53:04;;;;;;;4.90;3.27;;;25.00;34.90;;;;;;4992088;28;20529;-62
2021/11/12 08:55:34;;;;;;;4.15;3.75;;;25.00;35.00;;;;;;5011627;28;20053;-61
2021/11/12 08:58:03;;;;;;;3.15;2.95;;;25.00;35.00;;;;;;5019288;28;20060;-61
2021/11/12 09:00:31;;;;;;;3.60;2.95;;;25.10;35.00;;;;;;5014927;28;20048;-62
2021/11/12 09:02:59;;;;;;;3.50;3.20;;;25.10;35.00;;;;;;5003471;28;20131;-60
2021/11/12 09:05:27;;;;;;;6.05;4.03;;;25.10;34.90;;;;;;5014177;28;20135;-61
2021/11/12 09:07:55;;;;;;;3.70;3.40;;;25.00;34.90;;;;;;5014267;28;20143;-62
2021/11/12 09:10:25;;;;;;;3.40;3.13;;;25.00;35.10;;;;;;5016506;28;20049;-62
2021/11/12 09:12:59;;;;;;;3.67;3.30;;;25.00;35.10;;;;;;4997388;28;20061;-62
2021/11/12 09:15:30;;;;;;;4.88;3.28;;;25.00;35.00;;;;;;5020874;28;20498;-61
2021/11/12 09:18:02;;;;;;;3.40;3.10;;;25.00;34.90;;;;;;5016940;28;20387;-62
2021/11/12 09:20:30;;;;;;;3.33;3.03;;;25.00;34.90;;;;;;5017931;28;20459;-62
2021/11/12 09:22:59;;;;;;;3.03;2.83;;;25.00;34.80;;;;;;5001729;28;20466;-61
2021/11/12 09:25:27;;;;;;;3.15;2.85;;;25.00;34.90;;;;;;5020489;28;20053;-61
2021/11/12 09:27:54;;;;;;;4.93;3.30;;;25.00;34.70;;;;;;5020272;28;20049;-61
2021/11/12 09:30:24;;;;;;;2.95;2.75;;;25.00;34.70;;;;;;5018977;28;20052;-61
2021/11/12 09:32:54;;;;;;;3.28;3.05;;;25.00;34.90;;;;;;4984846;28;20143;-61
2021/11/12 09:35:22;;;;;;;3.20;2.90;;;25.00;34.90;;;;;;5020723;28;20173;-60
2021/11/12 09:37:50;;;;;;;4.10;3.25;;;25.00;35.00;;;;;;5022047;28;20085;-61
2021/11/12 09:40:18;;;;;;;3.38;3.08;;;25.00;35.00;;;;;;5019015;28;20048;-62
2021/11/12 09:42:47;;;;;;;3.53;3.22;;;25.00;35.00;;;;;;5001491;28;20163;-61
2021/11/12 09:45:16;;;;;;;4.20;3.08;;;25.00;35.00;;;;;;5024516;28;20088;-61
2021/11/12 09:47:43;;;;;;;3.17;2.90;;;25.00;35.00;;;;;;5019378;28;20049;-61
2021/11/12 09:50:16;;;;;;;3.72;3.33;;;25.10;35.70;;;;;;5023051;28;20498;-61
2021/11/12 09:52:44;;;;;;;4.18;3.17;;;25.10;35.10;;;;;;4999028;28;20659;-61
2021/11/12 09:55:12;;;;;;;4.43;3.55;;;25.10;35.10;;;;;;5024164;28;20482;-63
2021/11/12 09:57:41;;;;;;;4.22;3.85;;;25.10;35.10;;;;;;5017603;28;20053;-61
2021/11/12 10:00:11;;;;;;;4.78;3.38;;;25.10;35.20;;;;;;5020331;28;20102;-61
2021/11/12 10:02:42;;;;;;;5.18;3.35;;;25.10;35.10;;;;;;5000453;28;20564;-62
2021/11/12 10:05:15;;;;;;;3.63;3.33;;;25.10;35.00;;;;;;5020178;28;20056;-59
2021/11/12 10:07:42;;;;;;;3.88;3.22;;;25.10;35.20;;;;;;5016690;28;20053;-60
2021/11/12 10:10:14;;;;;;;7.45;3.58;;;25.10;35.20;;;;;;5022404;28;20140;-62
2021/11/12 10:12:44;;;;;;;3.47;3.17;;;25.10;35.30;;;;;;5001039;28;20494;-62
2021/11/12 10:15:16;;;;;;;4.38;3.97;;;25.10;35.30;;;;;;5018517;28;20084;-62
2021/11/12 10:17:45;;;;;;;4.22;3.70;;;25.10;35.30;;;;;;5017493;28;20049;-63
2021/11/12 10:20:22;;;;;;;4.55;4.15;;;25.10;35.20;;;;;;5021718;28;20123;-62
2021/11/12 10:22:51;;;;;;;4.25;3.20;;;25.20;35.20;;;;;;5000278;28;20752;-61
2021/11/12 10:25:20;;;;;;;4.82;3.60;;;25.20;35.40;;;;;;5018841;28;20583;-63
2021/11/12 10:27:50;;;;;;;3.60;3.30;;;25.20;35.50;;;;;;5021889;28;20048;-62
2021/11/12 10:30:25;;;;;;;4.97;3.58;;;25.20;35.50;;;;;;5012217;28;20052;-63
2021/11/12 10:32:58;;;;;;;3.88;3.58;;;25.30;35.50;;;;;;4998675;28;20126;-62
2021/11/12 10:35:28;;;;;;;4.38;3.85;;;25.30;35.50;;;;;;5007448;28;20056;-62
2021/11/12 10:38:06;;;;;;;;;;;25.30;35.30;;;;;;5007405;28;20723;-61
2021/11/12 10:40:34;;;;;;;5.88;3.85;;;25.40;35.40;;;;;;5010486;28;21031;-61
2021/11/12 10:43:01;;;;;;;4.10;3.70;;;25.40;35.40;;;;;;4993951;28;20103;-61
2021/11/12 10:45:31;;;;;;;8.65;3.45;;;25.40;35.40;;;;;;5011360;28;20052;-61
2021/11/12 10:47:59;;;;;;;;;;;25.40;35.30;;;;;;5021339;28;21695;-61
2021/11/12 10:50:33;;;;;;;5.07;4.45;;;25.40;35.20;;;;;;5021569;28;19975;-62
2021/11/12 10:53:11;;;;;;;4.50;3.90;;;25.40;35.30;;;;;;5007331;28;20158;-63
2021/11/12 10:55:39;;;;;;;4.03;3.67;;;25.40;35.20;;;;;;5023746;28;20049;-61
2021/11/12 10:58:10;;;;;;;6.10;3.60;;;25.40;35.20;;;;;;5024243;28;20148;-61
2021/11/12 11:00:45;;;;;;;4.47;4.03;;;25.40;35.20;;;;;;5021700;28;20041;-63
2021/11/12 11:03:15;;;;;;;4.63;3.88;;;25.40;35.10;;;;;;5011471;28;20044;-64
2021/11/12 11:05:51;;;;;;;3.95;3.65;;;25.50;35.20;;;;;;5020775;28;20477;-62
2021/11/12 11:08:21;;;;;;;5.18;4.18;;;25.50;35.40;;;;;;5023471;28;20049;-62
2021/11/12 11:10:58;;;;;;;;;;;25.50;35.90;;;;;;5012280;28;20057;-63
2021/11/12 11:13:29;;;;;;;4.38;3.97;;;25.60;35.20;;;;;;5011475;28;20452;-62
2021/11/12 11:15:58;;;;;;;4.43;4.07;;;25.60;35.10;;;;;;5019968;28;20417;-63
2021/11/12 11:18:43;;;;;;;6.68;4.00;;;25.60;34.90;;;;;;5024483;28;20125;-62
2021/11/12 11:21:25;;;;;;;5.10;4.35;;;25.60;34.70;;;;;;5013686;28;20067;-62
2021/11/12 11:23:58;;;;;;;5.32;4.03;;;25.60;34.60;;;;;;5010576;28;20801;-60
2021/11/12 11:26:43;;;;;;;5.38;4.80;;;25.60;34.50;;;;;;5022666;28;20991;-62
2021/11/12 11:29:13;;;;;;;7.93;4.97;;;25.60;34.30;;;;;;5014578;28;20110;-62
2021/11/12 11:31:41;;;;;;;5.28;4.78;;;25.60;34.20;;;;;;5005245;28;20110;-62
2021/11/12 11:34:09;;;;;;;4.85;4.30;;;25.50;34.10;;;;;;5014271;28;20132;-62
2021/11/12 11:36:42;;;;;;;5.07;4.43;;;25.50;34.10;;;;;;5019840;28;20060;-62
2021/11/12 11:39:12;;;;;;;5.10;4.43;;;25.50;34.10;;;;;;5012475;28;20210;-62
2021/11/12 11:41:43;;;;;;;7.55;4.47;;;25.50;34.10;;;;;;4997456;28;20588;-61
2021/11/12 11:44:13;;;;;;;6.60;4.35;;;25.50;34.00;;;;;;5007470;28;20569;-62
2021/11/12 11:46:43;;;;;;;5.18;4.68;;;25.50;34.20;;;;;;5010866;28;20057;-62
2021/11/12 11:49:17;;;;;;;4.60;4.20;;;25.50;34.80;;;;;;5017478;28;20041;-62
2021/11/12 11:51:53;;;;;;;4.63;4.22;;;25.50;34.30;;;;;;4999069;28;20146;-62
2021/11/12 11:54:23;;;;;;;4.95;4.40;;;25.50;34.30;;;;;;5012075;28;20132;-62
2021/11/12 11:56:54;;;;;;;6.25;4.63;;;25.50;34.20;;;;;;5045912;28;20114;-62
2021/11/12 11:59:35;;;;;;;6.03;4.40;;;25.50;34.20;;;;;;5022408;28;20080;-63
2021/11/12 12:02:09;;;;;;;5.85;4.65;;;25.50;34.20;;;;;;4999883;28;20053;-63
2021/11/12 12:04:42;;;;;;;8.57;4.93;;;25.50;34.20;;;;;;5009768;28;20049;-62
2021/11/12 12:07:22;;;;;;;7.25;5.60;;;25.50;34.10;;;;;;5020442;28;20114;-62
2021/11/12 12:10:00;;;;;;;9.70;6.53;;;25.50;34.10;;;;;;5021974;28;20070;-62
2021/11/12 12:12:46;;;;;;;7.75;6.03;;;25.50;33.80;;;;;;4997575;28;20064;-63
2021/11/12 12:15:35;;;;;;;8.43;6.70;;;25.50;33.50;;;;;;5020888;28;20092;-61
2021/11/12 12:18:09;;;;;;;10.32;6.13;;;25.50;33.50;;;;;;5020786;28;20542;-62
2021/11/12 12:35:07;;;;;;;5.68;5.03;;;25.50;33.70;;;;;;5011447;28;20494;-63
2021/11/12 12:41:18;;;;;;;6.90;5.22;;;25.50;33.70;;;;;;5017234;28;20114;-62
2021/11/12 13:20:58;;;;;;;5.95;5.35;;;25.30;33.40;;;;;;5024692;28;20721;-60
2021/11/12 13:23:34;;;;;;;6.47;5.72;;;25.40;33.50;;;;;;5015578;28;20533;-60
2021/11/12 13:26:05;;;;;;;8.30;5.57;;;25.30;33.40;;;;;;5029802;28;20049;-60
2021/11/12 13:28:40;;;;;;;6.60;5.60;;;25.30;33.40;;;;;;5028847;28;20110;-60
2021/11/12 13:31:13;;;;;;;7.60;5.45;;;25.30;33.40;;;;;;5022689;28;20059;-60
2021/11/12 13:33:58;;;;;;;7.75;5.20;;;25.30;33.40;;;;;;5020115;28;20041;-59
2021/11/12 13:36:29;;;;;;;6.30;5.65;;;25.20;33.40;;;;;;5027202;28;20053;-60
2021/11/12 13:39:06;;;;;;;5.82;5.22;;;25.20;33.40;;;;;;5026020;28;20088;-60
2021/11/12 13:41:47;;;;;;;7.60;6.20;;;25.20;33.40;;;;;;5016966;28;20053;-60
2021/11/12 13:44:18;;;;;;;6.72;5.82;;;25.10;33.30;;;;;;5023899;28;20098;-60
2021/11/12 13:46:58;;;;;;;7.63;6.07;;;25.10;33.30;;;;;;5028622;28;20049;-60
2021/11/12 13:49:45;;;;;;;6.47;5.63;;;25.10;33.30;;;;;;5029069;28;20049;-60
2021/11/12 13:52:19;;;;;;;6.07;5.47;;;25.10;33.30;;;;;;5002333;28;20137;-60
2021/11/12 13:55:01;;;;;;;9.70;6.03;;;25.10;33.40;;;;;;5029326;28;20057;-59
2021/11/12 13:57:29;;;;;;;6.18;5.57;;;25.10;33.40;;;;;;5028993;28;20045;-59
2021/11/12 14:00:03;;;;;;;7.88;6.78;;;25.00;33.30;;;;;;5028023;28;20061;-59
2021/11/12 14:02:52;;;;;;;9.23;6.47;;;25.00;33.40;;;;;;5010390;28;20143;-59
2021/11/12 14:05:19;;;;;;;7.70;6.90;;;25.00;33.40;;;;;;5029133;28;20056;-60
2021/11/12 14:07:46;;;;;;;9.40;6.35;;;25.00;33.40;;;;;;5027065;28;20064;-59
2021/11/12 14:10:17;;;;;;;9.20;7.03;;;25.00;33.40;;;;;;5029789;28;20103;-60
2021/11/12 14:12:53;;;;;;;8.02;6.95;;;25.00;33.50;;;;;;5010536;28;20081;-60
2021/11/12 14:15:29;;;;;;;8.57;6.78;;;25.00;33.60;;;;;;5028591;28;20095;-60
2021/11/12 14:18:31;;;;;;;9.18;7.32;;;24.90;33.70;;;;;;5027857;28;20085;-60
2021/11/12 14:21:24;;;;;;;9.45;6.97;;;24.90;33.80;;;;;;5021144;28;20103;-60
2021/11/12 14:24:15;;;;;;;7.53;6.57;;;24.90;33.90;;;;;;5016196;28;20118;-59
2021/11/12 14:26:51;;;;;;;8.85;6.75;;;24.90;34.10;;;;;;5027349;28;20049;-60
2021/11/12 14:30:07;;;;;;;7.28;6.57;;;24.90;34.40;;;;;;5027460;28;20118;-59
2021/11/12 14:32:48;;;;;;;8.65;7.20;;;24.80;34.60;;;;;;5010017;28;20075;-60
2021/11/12 14:38:41;;;;;;;9.05;7.03;;;24.70;34.90;;;;;;5027689;28;20500;-60
2021/11/12 14:41:22;;;;;;;7.45;6.63;;;24.70;34.90;;;;;;5022401;28;20137;-60
2021/11/12 14:44:12;;;;;;;8.63;7.47;;;24.70;34.90;;;;;;5019892;28;20049;-60
2021/11/12 14:47:00;;;;;;;7.78;6.97;;;24.70;34.90;;;;;;5028706;28;20052;-60
2021/11/12 14:49:38;;;;;;;9.00;7.38;;;24.60;34.90;;;;;;5027847;28;20049;-60
2021/11/12 14:52:13;;;;;;;8.23;7.15;;;24.60;34.90;;;;;;5006677;28;20060;-61
2021/11/12 14:54:46;;;;;;;11.82;7.75;;;24.50;34.80;;;;;;5028997;28;20045;-60
2021/11/12 14:57:30;;;;;;;9.25;8.05;;;24.50;34.80;;;;;;5029069;28;20424;-60
2021/11/12 15:00:09;;;;;;;9.93;8.00;;;24.50;34.80;;;;;;5028724;28;20513;-59
2021/11/12 15:02:37;;;;;;;9.02;7.72;;;24.50;34.70;;;;;;5009475;28;20056;-60
2021/11/12 15:05:05;;;;;;;9.65;8.43;;;24.40;34.70;;;;;;5028439;28;20065;-61
2021/11/12 15:07:42;;;;;;;10.18;8.30;;;24.40;34.70;;;;;;5032732;28;20052;-60
2021/11/12 15:10:15;;;;;;;10.85;9.18;;;24.40;34.60;;;;;;5047235;28;20102;-60
2021/11/12 15:12:47;;;;;;;10.20;8.60;;;24.30;34.60;;;;;;5021377;28;20084;-60
2021/11/12 15:15:15;;;;;;;11.05;9.60;;;24.30;34.60;;;;;;5035059;28;20049;-60
2021/11/12 15:17:42;;;;;;;10.57;9.48;;;24.30;34.60;;;;;;5027769;28;20053;-60
2021/11/12 15:20:10;;;;;;;12.13;9.73;;;24.30;34.60;;;;;;5028803;28;20088;-60
2021/11/12 15:22:59;;;;;;;13.02;9.52;;;24.30;34.60;;;;;;5015528;28;20808;-60
2021/11/12 15:28:27;;;;;;;11.70;9.25;;;24.20;34.50;;;;;;5033797;28;20048;-61
2021/11/12 15:31:01;;;;;;;12.10;9.75;;;24.20;34.50;;;;;;5025111;28;20049;-60
2021/11/12 15:33:28;;;;;;;13.50;10.23;;;24.10;34.50;;;;;;5026603;28;20049;-60
2021/11/12 15:35:58;;;;;;;11.68;9.27;;;24.10;34.50;;;;;;5026691;28;20080;-60
2021/11/12 15:38:36;;;;;;;18.30;11.13;;;24.10;34.60;;;;;;5029477;28;21063;-60
2021/11/12 15:41:10;;;;;;;13.45;10.88;;;24.10;34.60;;;;;;5021172;28;20102;-60
2021/11/12 15:43:51;;;;;;;12.70;9.95;;;24.10;34.50;;;;;;5018205;28;20053;-60
2021/11/12 15:46:27;;;;;;;16.45;10.95;;;24.10;34.60;;;;;;5028540;28;20627;-60
2021/11/12 15:48:55;;;;;;;13.43;10.45;;;24.00;34.50;;;;;;5028690;28;20141;-60
2021/11/12 15:51:33;;;;;;;13.77;10.75;;;24.00;34.50;;;;;;5020010;28;20521;-60
2021/11/12 15:54:24;;;;;;;12.38;10.27;;;24.00;34.50;;;;;;5024122;28;20053;-60
2021/11/12 15:57:04;;;;;;;14.25;10.98;;;24.00;34.50;;;;;;5026835;28;20103;-60
2021/11/12 15:59:44;;;;;;;13.55;11.10;;;23.90;34.60;;;;;;5023127;28;20144;-60
2021/11/12 16:02:38;;;;;;;15.23;11.63;;;23.90;34.60;;;;;;5013019;28;20505;-60
2021/11/12 16:05:34;;;;;;;15.65;11.63;;;23.90;34.60;;;;;;5047602;28;20114;-60
2021/11/12 16:08:05;;;;;;;15.00;11.57;;;23.90;34.60;;;;;;5048324;28;20052;-60
2021/11/12 16:11:08;;;;;;;14.13;11.68;;;23.80;34.60;;;;;;5044952;28;20052;-61
2021/11/12 16:13:28;;;;;;;14.95;11.13;;;23.80;34.60;;;;;;5022349;28;20147;-60
2021/11/12 16:18:56;;;;;;;17.70;12.35;;;23.80;34.70;;;;;;5026862;28;20143;-60
2021/11/12 16:21:42;;;;;;;15.25;12.50;;;23.80;34.70;;;;;;5007046;28;20462;-59
2021/11/12 16:24:36;;;;;;;15.18;12.40;;;23.80;34.70;;;;;;5041179;28;20060;-59
2021/11/12 16:27:00;;;;;;;15.07;12.23;;;23.70;34.70;;;;;;5047584;28;20143;-59
2021/11/12 16:29:35;;;;;;;17.92;12.80;;;23.70;34.80;;;;;;5047766;28;20092;-59
2021/11/12 16:32:06;;;;;;;15.85;12.65;;;23.70;34.80;;;;;;5021410;28;20118;-60
2021/11/12 16:34:42;;;;;;;16.20;12.65;;;23.70;34.80;;;;;;5026115;28;20110;-59
2021/11/12 16:37:11;;;;;;;15.10;12.07;;;23.60;34.80;;;;;;5027855;28;20053;-59
2021/11/12 16:40:00;;;;;;;18.55;13.32;;;23.60;34.80;;;;;;5027814;28;20446;-60
2021/11/12 16:42:37;;;;;;;18.67;14.15;;;23.60;34.80;;;;;;5010381;28;20724;-59
2021/11/12 16:45:16;;;;;;;14.65;12.15;;;23.60;34.80;;;;;;5027767;28;20049;-59
2021/11/12 16:47:53;;;;;;;18.52;14.32;;;23.60;34.80;;;;;;5028427;28;20080;-60
2021/11/12 16:53:23;;;;;;;19.40;15.38;;;23.60;34.90;;;;;;5015990;28;20053;-59
2021/11/12 16:56:23;;;;;;;18.45;14.60;;;23.60;34.80;;;;;;5027748;28;20045;-59
2021/11/12 16:58:48;;;;;;;19.90;14.98;;;23.60;34.90;;;;;;5027372;28;20060;-59